sensor_id;sensor_type;location;lat;lon;timestamp;P1;durP1;ratioP1;P2;durP2;ratioP2
39848;SDS011;25518;47.878;15.914;2024-01-06T00:02:15;22.80;;;8.02;;
39848;SDS011;25518;47.878;15.914;2024-01-06T00:05:07;19.55;;;7.18;;
39848;SDS011;25518;47.878;15.914;2024-01-06T00:07:58;17.60;;;6.40;;
39848;SDS011;25518;47.878;15.914;2024-01-06T00:10:50;16.48;;;5.95;;
39848;SDS011;25518;47.878;15.914;2024-01-06T00:13:41;13.40;;;6.10;;
39848;SDS011;25518;47.878;15.914;2024-01-06T00:16:32;12.45;;;4.65;;
39848;SDS011;25518;47.878;15.914;2024-01-06T00:19:24;16.83;;;6.28;;
39848;SDS011;25518;47.878;15.914;2024-01-06T00:22:15;14.63;;;5.63;;
39848;SDS011;25518;47.878;15.914;2024-01-06T00:25:06;14.38;;;5.63;;
39848;SDS011;25518;47.878;15.914;2024-01-06T00:27:58;14.65;;;6.20;;
39848;SDS011;25518;47.878;15.914;2024-01-06T00:30:49;16.63;;;6.78;;
39848;SDS011;25518;47.878;15.914;2024-01-06T00:33:40;17.35;;;5.47;;
39848;SDS011;25518;47.878;15.914;2024-01-06T00:36:32;13.63;;;5.32;;
39848;SDS011;25518;47.878;15.914;2024-01-06T00:39:23;10.25;;;4.18;;
39848;SDS011;25518;47.878;15.914;2024-01-06T00:42:15;6.93;;;2.65;;
39848;SDS011;25518;47.878;15.914;2024-01-06T00:45:06;5.00;;;2.28;;
39848;SDS011;25518;47.878;15.914;2024-01-06T00:47:58;5.85;;;2.45;;
39848;SDS011;25518;47.878;15.914;2024-01-06T00:50:50;6.73;;;2.70;;
39848;SDS011;25518;47.878;15.914;2024-01-06T00:53:41;4.20;;;2.30;;
39848;SDS011;25518;47.878;15.914;2024-01-06T00:56:32;4.97;;;2.60;;
39848;SDS011;25518;47.878;15.914;2024-01-06T00:59:24;6.22;;;3.25;;
39848;SDS011;25518;47.878;15.914;2024-01-06T01:02:16;5.88;;;2.53;;
39848;SDS011;25518;47.878;15.914;2024-01-06T01:05:07;5.50;;;1.67;;
39848;SDS011;25518;47.878;15.914;2024-01-06T01:07:59;2.97;;;1.48;;
39848;SDS011;25518;47.878;15.914;2024-01-06T01:10:50;7.68;;;1.70;;
39848;SDS011;25518;47.878;15.914;2024-01-06T01:13:42;2.40;;;1.17;;
39848;SDS011;25518;47.878;15.914;2024-01-06T01:16:33;4.90;;;1.50;;
39848;SDS011;25518;47.878;15.914;2024-01-06T01:19:24;5.45;;;2.67;;
39848;SDS011;25518;47.878;15.914;2024-01-06T01:22:15;7.53;;;3.53;;
39848;SDS011;25518;47.878;15.914;2024-01-06T01:25:07;7.40;;;3.15;;
39848;SDS011;25518;47.878;15.914;2024-01-06T01:27:58;7.10;;;3.40;;
39848;SDS011;25518;47.878;15.914;2024-01-06T01:30:50;10.70;;;3.67;;
39848;SDS011;25518;47.878;15.914;2024-01-06T01:33:42;8.95;;;3.63;;
39848;SDS011;25518;47.878;15.914;2024-01-06T01:36:33;9.55;;;3.85;;
39848;SDS011;25518;47.878;15.914;2024-01-06T01:39:25;9.57;;;4.32;;
39848;SDS011;25518;47.878;15.914;2024-01-06T01:42:16;6.45;;;3.15;;
39848;SDS011;25518;47.878;15.914;2024-01-06T01:45:07;10.75;;;4.18;;
39848;SDS011;25518;47.878;15.914;2024-01-06T01:47:59;8.65;;;3.70;;
39848;SDS011;25518;47.878;15.914;2024-01-06T01:50:50;9.38;;;3.40;;
39848;SDS011;25518;47.878;15.914;2024-01-06T01:53:43;11.75;;;3.97;;
39848;SDS011;25518;47.878;15.914;2024-01-06T01:56:35;8.70;;;3.30;;
39848;SDS011;25518;47.878;15.914;2024-01-06T01:59:30;15.43;;;4.32;;
39848;SDS011;25518;47.878;15.914;2024-01-06T02:02:21;9.13;;;3.78;;
39848;SDS011;25518;47.878;15.914;2024-01-06T02:05:14;8.98;;;3.70;;
39848;SDS011;25518;47.878;15.914;2024-01-06T02:08:05;9.27;;;3.22;;
39848;SDS011;25518;47.878;15.914;2024-01-06T02:10:57;8.00;;;2.90;;
39848;SDS011;25518;47.878;15.914;2024-01-06T02:13:48;9.52;;;2.95;;
39848;SDS011;25518;47.878;15.914;2024-01-06T02:16:40;6.25;;;2.78;;
39848;SDS011;25518;47.878;15.914;2024-01-06T02:19:31;5.03;;;2.35;;
39848;SDS011;25518;47.878;15.914;2024-01-06T02:22:22;5.22;;;2.33;;
39848;SDS011;25518;47.878;15.914;2024-01-06T02:25:14;5.05;;;2.20;;
39848;SDS011;25518;47.878;15.914;2024-01-06T02:28:05;5.20;;;2.13;;
39848;SDS011;25518;47.878;15.914;2024-01-06T02:30:57;4.70;;;2.38;;
39848;SDS011;25518;47.878;15.914;2024-01-06T02:33:48;6.13;;;2.42;;
39848;SDS011;25518;47.878;15.914;2024-01-06T02:36:39;4.40;;;1.92;;
39848;SDS011;25518;47.878;15.914;2024-01-06T02:39:31;3.83;;;1.83;;
39848;SDS011;25518;47.878;15.914;2024-01-06T02:42:22;2.55;;;1.02;;
39848;SDS011;25518;47.878;15.914;2024-01-06T02:45:15;2.75;;;1.50;;
39848;SDS011;25518;47.878;15.914;2024-01-06T02:48:07;2.95;;;1.75;;
39848;SDS011;25518;47.878;15.914;2024-01-06T02:50:58;4.60;;;1.67;;
39848;SDS011;25518;47.878;15.914;2024-01-06T02:53:49;2.85;;;1.63;;
39848;SDS011;25518;47.878;15.914;2024-01-06T02:56:40;5.22;;;2.22;;
39848;SDS011;25518;47.878;15.914;2024-01-06T02:59:32;4.07;;;2.20;;
39848;SDS011;25518;47.878;15.914;2024-01-06T03:02:25;6.25;;;2.22;;
39848;SDS011;25518;47.878;15.914;2024-01-06T03:05:16;5.47;;;1.95;;
39848;SDS011;25518;47.878;15.914;2024-01-06T03:08:08;2.58;;;1.55;;
39848;SDS011;25518;47.878;15.914;2024-01-06T03:10:59;4.65;;;1.70;;
39848;SDS011;25518;47.878;15.914;2024-01-06T03:13:51;4.10;;;1.88;;
39848;SDS011;25518;47.878;15.914;2024-01-06T03:16:42;6.60;;;2.70;;
39848;SDS011;25518;47.878;15.914;2024-01-06T03:19:34;7.03;;;2.90;;
39848;SDS011;25518;47.878;15.914;2024-01-06T03:22:25;5.25;;;2.55;;
39848;SDS011;25518;47.878;15.914;2024-01-06T03:25:17;5.13;;;2.20;;
39848;SDS011;25518;47.878;15.914;2024-01-06T03:28:08;6.27;;;2.17;;
39848;SDS011;25518;47.878;15.914;2024-01-06T03:30:59;3.97;;;1.80;;
39848;SDS011;25518;47.878;15.914;2024-01-06T03:33:51;4.03;;;2.07;;
39848;SDS011;25518;47.878;15.914;2024-01-06T03:36:45;5.25;;;2.03;;
39848;SDS011;25518;47.878;15.914;2024-01-06T03:39:36;5.13;;;2.53;;
39848;SDS011;25518;47.878;15.914;2024-01-06T03:42:27;5.88;;;2.47;;
39848;SDS011;25518;47.878;15.914;2024-01-06T03:45:19;5.38;;;2.38;;
39848;SDS011;25518;47.878;15.914;2024-01-06T03:48:10;5.15;;;2.22;;
39848;SDS011;25518;47.878;15.914;2024-01-06T03:51:02;6.88;;;2.55;;
39848;SDS011;25518;47.878;15.914;2024-01-06T03:53:53;4.35;;;2.25;;
39848;SDS011;25518;47.878;15.914;2024-01-06T03:56:45;6.65;;;2.85;;
39848;SDS011;25518;47.878;15.914;2024-01-06T03:59:36;7.15;;;2.60;;
39848;SDS011;25518;47.878;15.914;2024-01-06T04:02:28;7.05;;;2.60;;
39848;SDS011;25518;47.878;15.914;2024-01-06T04:05:19;7.03;;;2.58;;
39848;SDS011;25518;47.878;15.914;2024-01-06T04:08:10;5.65;;;2.85;;
39848;SDS011;25518;47.878;15.914;2024-01-06T04:11:01;2.90;;;1.65;;
39848;SDS011;25518;47.878;15.914;2024-01-06T04:13:53;6.80;;;2.85;;
39848;SDS011;25518;47.878;15.914;2024-01-06T04:16:44;5.03;;;2.30;;
39848;SDS011;25518;47.878;15.914;2024-01-06T04:19:36;4.95;;;2.55;;
39848;SDS011;25518;47.878;15.914;2024-01-06T04:22:27;6.68;;;2.78;;
39848;SDS011;25518;47.878;15.914;2024-01-06T04:25:18;5.07;;;2.40;;
39848;SDS011;25518;47.878;15.914;2024-01-06T04:28:09;7.45;;;3.22;;
39848;SDS011;25518;47.878;15.914;2024-01-06T04:31:01;4.18;;;2.28;;
39848;SDS011;25518;47.878;15.914;2024-01-06T04:33:52;5.72;;;2.80;;
39848;SDS011;25518;47.878;15.914;2024-01-06T04:36:43;6.45;;;2.50;;
39848;SDS011;25518;47.878;15.914;2024-01-06T04:39:35;6.13;;;2.55;;
39848;SDS011;25518;47.878;15.914;2024-01-06T04:42:26;6.68;;;2.40;;
39848;SDS011;25518;47.878;15.914;2024-01-06T04:45:17;6.07;;;2.58;;
39848;SDS011;25518;47.878;15.914;2024-01-06T04:48:10;4.55;;;2.75;;
39848;SDS011;25518;47.878;15.914;2024-01-06T04:51:01;5.95;;;2.47;;
39848;SDS011;25518;47.878;15.914;2024-01-06T04:53:54;4.87;;;2.53;;
39848;SDS011;25518;47.878;15.914;2024-01-06T04:56:45;5.22;;;2.20;;
39848;SDS011;25518;47.878;15.914;2024-01-06T04:59:37;4.82;;;2.50;;
39848;SDS011;25518;47.878;15.914;2024-01-06T05:02:28;6.00;;;2.28;;
39848;SDS011;25518;47.878;15.914;2024-01-06T05:05:20;6.57;;;2.45;;
39848;SDS011;25518;47.878;15.914;2024-01-06T05:08:11;4.18;;;1.90;;
39848;SDS011;25518;47.878;15.914;2024-01-06T05:11:02;3.72;;;2.30;;
39848;SDS011;25518;47.878;15.914;2024-01-06T05:13:53;5.20;;;2.20;;
39848;SDS011;25518;47.878;15.914;2024-01-06T05:16:45;6.30;;;2.53;;
39848;SDS011;25518;47.878;15.914;2024-01-06T05:19:36;4.70;;;2.20;;
39848;SDS011;25518;47.878;15.914;2024-01-06T05:22:28;7.47;;;2.87;;
39848;SDS011;25518;47.878;15.914;2024-01-06T05:25:19;8.93;;;3.37;;
39848;SDS011;25518;47.878;15.914;2024-01-06T05:28:11;7.53;;;2.95;;
39848;SDS011;25518;47.878;15.914;2024-01-06T05:31:02;8.23;;;2.92;;
39848;SDS011;25518;47.878;15.914;2024-01-06T05:33:53;6.87;;;2.60;;
39848;SDS011;25518;47.878;15.914;2024-01-06T05:36:45;6.43;;;2.63;;
39848;SDS011;25518;47.878;15.914;2024-01-06T05:39:37;6.57;;;3.13;;
39848;SDS011;25518;47.878;15.914;2024-01-06T05:42:30;10.75;;;5.10;;
39848;SDS011;25518;47.878;15.914;2024-01-06T05:45:21;7.57;;;3.00;;
39848;SDS011;25518;47.878;15.914;2024-01-06T05:48:13;8.13;;;3.17;;
39848;SDS011;25518;47.878;15.914;2024-01-06T05:51:04;9.90;;;4.35;;
39848;SDS011;25518;47.878;15.914;2024-01-06T05:53:56;13.90;;;4.95;;
39848;SDS011;25518;47.878;15.914;2024-01-06T05:56:47;10.55;;;5.63;;
39848;SDS011;25518;47.878;15.914;2024-01-06T05:59:39;10.35;;;4.93;;
39848;SDS011;25518;47.878;15.914;2024-01-06T06:02:31;6.90;;;3.28;;
39848;SDS011;25518;47.878;15.914;2024-01-06T06:05:22;6.15;;;3.20;;
39848;SDS011;25518;47.878;15.914;2024-01-06T06:08:13;11.15;;;4.68;;
39848;SDS011;25518;47.878;15.914;2024-01-06T06:11:05;9.18;;;4.88;;
39848;SDS011;25518;47.878;15.914;2024-01-06T06:14:01;10.50;;;5.70;;
39848;SDS011;25518;47.878;15.914;2024-01-06T06:16:55;11.35;;;5.72;;
39848;SDS011;25518;47.878;15.914;2024-01-06T06:19:47;12.00;;;5.63;;
39848;SDS011;25518;47.878;15.914;2024-01-06T06:22:38;11.07;;;5.20;;
39848;SDS011;25518;47.878;15.914;2024-01-06T06:25:29;9.35;;;4.82;;
39848;SDS011;25518;47.878;15.914;2024-01-06T06:28:21;10.52;;;5.53;;
39848;SDS011;25518;47.878;15.914;2024-01-06T06:31:12;11.05;;;5.03;;
39848;SDS011;25518;47.878;15.914;2024-01-06T06:34:03;11.80;;;5.55;;
39848;SDS011;25518;47.878;15.914;2024-01-06T06:36:54;12.02;;;5.43;;
39848;SDS011;25518;47.878;15.914;2024-01-06T06:39:46;10.15;;;4.43;;
39848;SDS011;25518;47.878;15.914;2024-01-06T06:42:37;13.18;;;5.25;;
39848;SDS011;25518;47.878;15.914;2024-01-06T06:45:29;9.40;;;4.90;;
39848;SDS011;25518;47.878;15.914;2024-01-06T06:48:21;8.45;;;4.82;;
39848;SDS011;25518;47.878;15.914;2024-01-06T06:51:12;9.20;;;4.93;;
39848;SDS011;25518;47.878;15.914;2024-01-06T06:54:04;7.75;;;4.82;;
39848;SDS011;25518;47.878;15.914;2024-01-06T06:56:55;8.45;;;4.75;;
39848;SDS011;25518;47.878;15.914;2024-01-06T06:59:46;7.70;;;4.18;;
39848;SDS011;25518;47.878;15.914;2024-01-06T07:02:38;7.82;;;3.45;;
39848;SDS011;25518;47.878;15.914;2024-01-06T07:05:29;6.45;;;3.80;;
39848;SDS011;25518;47.878;15.914;2024-01-06T07:08:21;13.65;;;6.25;;
39848;SDS011;25518;47.878;15.914;2024-01-06T07:11:12;10.82;;;5.05;;
39848;SDS011;25518;47.878;15.914;2024-01-06T07:14:05;12.00;;;6.38;;
39848;SDS011;25518;47.878;15.914;2024-01-06T07:16:57;10.65;;;6.10;;
39848;SDS011;25518;47.878;15.914;2024-01-06T07:19:48;11.85;;;6.18;;
39848;SDS011;25518;47.878;15.914;2024-01-06T07:22:39;13.45;;;6.75;;
39848;SDS011;25518;47.878;15.914;2024-01-06T07:25:31;11.30;;;6.10;;
39848;SDS011;25518;47.878;15.914;2024-01-06T07:28:23;11.80;;;6.13;;
39848;SDS011;25518;47.878;15.914;2024-01-06T07:31:14;10.32;;;5.30;;
39848;SDS011;25518;47.878;15.914;2024-01-06T07:34:07;10.60;;;5.55;;
39848;SDS011;25518;47.878;15.914;2024-01-06T07:36:59;13.50;;;5.40;;
39848;SDS011;25518;47.878;15.914;2024-01-06T07:39:50;12.52;;;6.60;;
39848;SDS011;25518;47.878;15.914;2024-01-06T07:42:42;14.13;;;5.85;;
39848;SDS011;25518;47.878;15.914;2024-01-06T07:45:34;10.75;;;5.50;;
39848;SDS011;25518;47.878;15.914;2024-01-06T07:48:27;9.93;;;5.40;;
39848;SDS011;25518;47.878;15.914;2024-01-06T07:51:19;12.20;;;5.80;;
39848;SDS011;25518;47.878;15.914;2024-01-06T07:54:10;13.38;;;5.35;;
39848;SDS011;25518;47.878;15.914;2024-01-06T07:57:02;8.95;;;5.00;;
39848;SDS011;25518;47.878;15.914;2024-01-06T07:59:53;8.98;;;4.60;;
39848;SDS011;25518;47.878;15.914;2024-01-06T08:02:45;9.43;;;5.00;;
39848;SDS011;25518;47.878;15.914;2024-01-06T08:05:36;8.27;;;4.80;;
39848;SDS011;25518;47.878;15.914;2024-01-06T08:08:28;6.25;;;3.58;;
39848;SDS011;25518;47.878;15.914;2024-01-06T08:11:19;7.13;;;3.67;;
39848;SDS011;25518;47.878;15.914;2024-01-06T08:14:11;7.63;;;3.53;;
39848;SDS011;25518;47.878;15.914;2024-01-06T08:17:03;9.95;;;3.72;;
39848;SDS011;25518;47.878;15.914;2024-01-06T08:19:55;7.35;;;3.55;;
39848;SDS011;25518;47.878;15.914;2024-01-06T08:22:46;7.00;;;3.47;;
39848;SDS011;25518;47.878;15.914;2024-01-06T08:25:37;5.85;;;3.38;;
39848;SDS011;25518;47.878;15.914;2024-01-06T08:28:29;6.40;;;3.13;;
39848;SDS011;25518;47.878;15.914;2024-01-06T08:31:20;6.63;;;3.40;;
39848;SDS011;25518;47.878;15.914;2024-01-06T08:34:13;4.53;;;2.72;;
39848;SDS011;25518;47.878;15.914;2024-01-06T08:37:05;4.40;;;2.83;;
39848;SDS011;25518;47.878;15.914;2024-01-06T08:39:56;7.93;;;4.18;;
39848;SDS011;25518;47.878;15.914;2024-01-06T08:42:47;4.95;;;2.75;;
39848;SDS011;25518;47.878;15.914;2024-01-06T08:45:39;5.60;;;3.27;;
39848;SDS011;25518;47.878;15.914;2024-01-06T08:48:31;7.37;;;3.40;;
39848;SDS011;25518;47.878;15.914;2024-01-06T08:51:22;6.55;;;3.13;;
39848;SDS011;25518;47.878;15.914;2024-01-06T08:54:15;6.18;;;3.78;;
39848;SDS011;25518;47.878;15.914;2024-01-06T08:57:06;7.78;;;4.25;;
39848;SDS011;25518;47.878;15.914;2024-01-06T08:59:57;11.23;;;5.10;;
39848;SDS011;25518;47.878;15.914;2024-01-06T09:02:49;9.68;;;4.25;;
39848;SDS011;25518;47.878;15.914;2024-01-06T09:05:40;10.45;;;4.45;;
39848;SDS011;25518;47.878;15.914;2024-01-06T09:08:32;8.77;;;4.28;;
39848;SDS011;25518;47.878;15.914;2024-01-06T09:11:23;6.57;;;4.20;;
39848;SDS011;25518;47.878;15.914;2024-01-06T09:14:16;5.60;;;3.95;;
39848;SDS011;25518;47.878;15.914;2024-01-06T09:17:08;7.20;;;3.95;;
39848;SDS011;25518;47.878;15.914;2024-01-06T09:20:00;6.65;;;3.70;;
39848;SDS011;25518;47.878;15.914;2024-01-06T09:22:53;7.13;;;4.10;;
39848;SDS011;25518;47.878;15.914;2024-01-06T09:25:44;9.20;;;4.07;;
39848;SDS011;25518;47.878;15.914;2024-01-06T09:28:35;6.00;;;3.20;;
39848;SDS011;25518;47.878;15.914;2024-01-06T09:31:27;7.05;;;3.83;;
39848;SDS011;25518;47.878;15.914;2024-01-06T09:34:18;7.07;;;3.75;;
39848;SDS011;25518;47.878;15.914;2024-01-06T09:37:09;8.85;;;3.72;;
39848;SDS011;25518;47.878;15.914;2024-01-06T09:40:01;10.63;;;4.97;;
39848;SDS011;25518;47.878;15.914;2024-01-06T09:42:52;5.25;;;2.85;;
39848;SDS011;25518;47.878;15.914;2024-01-06T09:45:46;5.45;;;2.65;;
39848;SDS011;25518;47.878;15.914;2024-01-06T09:48:48;2.55;;;1.63;;
39848;SDS011;25518;47.878;15.914;2024-01-06T09:51:42;3.13;;;1.37;;
39848;SDS011;25518;47.878;15.914;2024-01-06T09:54:34;1.73;;;0.82;;
39848;SDS011;25518;47.878;15.914;2024-01-06T09:57:28;2.03;;;0.98;;
39848;SDS011;25518;47.878;15.914;2024-01-06T10:00:20;3.25;;;1.40;;
39848;SDS011;25518;47.878;15.914;2024-01-06T10:03:12;1.67;;;0.90;;
39848;SDS011;25518;47.878;15.914;2024-01-06T10:06:04;0.95;;;0.50;;
39848;SDS011;25518;47.878;15.914;2024-01-06T10:08:55;1.00;;;0.68;;
39848;SDS011;25518;47.878;15.914;2024-01-06T10:11:47;0.90;;;0.40;;
39848;SDS011;25518;47.878;15.914;2024-01-06T10:14:38;1.30;;;0.50;;
39848;SDS011;25518;47.878;15.914;2024-01-06T10:17:30;0.65;;;0.40;;
39848;SDS011;25518;47.878;15.914;2024-01-06T10:20:22;0.82;;;0.40;;
39848;SDS011;25518;47.878;15.914;2024-01-06T10:23:13;0.38;;;0.35;;
39848;SDS011;25518;47.878;15.914;2024-01-06T10:26:05;0.80;;;0.50;;
39848;SDS011;25518;47.878;15.914;2024-01-06T10:28:56;0.40;;;0.40;;
39848;SDS011;25518;47.878;15.914;2024-01-06T10:31:47;0.65;;;0.40;;
39848;SDS011;25518;47.878;15.914;2024-01-06T10:34:39;0.45;;;0.30;;
39848;SDS011;25518;47.878;15.914;2024-01-06T10:37:31;0.80;;;0.40;;
39848;SDS011;25518;47.878;15.914;2024-01-06T10:40:22;0.45;;;0.30;;
39848;SDS011;25518;47.878;15.914;2024-01-06T10:43:14;0.93;;;0.60;;
39848;SDS011;25518;47.878;15.914;2024-01-06T10:46:05;0.82;;;0.60;;
39848;SDS011;25518;47.878;15.914;2024-01-06T10:49:00;0.63;;;0.35;;
39848;SDS011;25518;47.878;15.914;2024-01-06T10:51:53;0.52;;;0.30;;
39848;SDS011;25518;47.878;15.914;2024-01-06T10:54:45;0.63;;;0.30;;
39848;SDS011;25518;47.878;15.914;2024-01-06T10:57:41;0.52;;;0.30;;
39848;SDS011;25518;47.878;15.914;2024-01-06T11:00:35;0.50;;;0.30;;
39848;SDS011;25518;47.878;15.914;2024-01-06T11:03:27;1.10;;;0.50;;
39848;SDS011;25518;47.878;15.914;2024-01-06T11:06:20;0.40;;;0.30;;
39848;SDS011;25518;47.878;15.914;2024-01-06T11:09:29;0.40;;;0.40;;
39848;SDS011;25518;47.878;15.914;2024-01-06T11:12:24;0.20;;;0.20;;
39848;SDS011;25518;47.878;15.914;2024-01-06T11:15:55;0.20;;;0.20;;
39848;SDS011;25518;47.878;15.914;2024-01-06T11:18:38;0.30;;;0.30;;
39848;SDS011;25518;47.878;15.914;2024-01-06T11:21:33;0.68;;;0.20;;
39848;SDS011;25518;47.878;15.914;2024-01-06T11:24:25;0.28;;;0.25;;
39848;SDS011;25518;47.878;15.914;2024-01-06T11:27:19;0.10;;;0.10;;
39848;SDS011;25518;47.878;15.914;2024-01-06T11:30:28;0.30;;;0.30;;
39848;SDS011;25518;47.878;15.914;2024-01-06T11:33:20;0.20;;;0.20;;
39848;SDS011;25518;47.878;15.914;2024-01-06T11:36:12;0.55;;;0.30;;
39848;SDS011;25518;47.878;15.914;2024-01-06T11:39:06;0.30;;;0.30;;
39848;SDS011;25518;47.878;15.914;2024-01-06T11:41:57;0.80;;;0.20;;
39848;SDS011;25518;47.878;15.914;2024-01-06T11:44:50;0.43;;;0.28;;
39848;SDS011;25518;47.878;15.914;2024-01-06T11:47:46;0.22;;;0.17;;
39848;SDS011;25518;47.878;15.914;2024-01-06T11:50:39;0.88;;;0.20;;
39848;SDS011;25518;47.878;15.914;2024-01-06T11:53:32;0.33;;;0.20;;
39848;SDS011;25518;47.878;15.914;2024-01-06T11:56:23;0.10;;;0.10;;
39848;SDS011;25518;47.878;15.914;2024-01-06T11:59:15;0.65;;;0.45;;
39848;SDS011;25518;47.878;15.914;2024-01-06T12:02:10;0.65;;;0.20;;
39848;SDS011;25518;47.878;15.914;2024-01-06T12:05:04;0.43;;;0.32;;
39848;SDS011;25518;47.878;15.914;2024-01-06T12:07:56;0.30;;;0.17;;
39848;SDS011;25518;47.878;15.914;2024-01-06T12:10:49;0.50;;;0.35;;
39848;SDS011;25518;47.878;15.914;2024-01-06T12:13:40;0.40;;;0.30;;
39848;SDS011;25518;47.878;15.914;2024-01-06T12:16:32;0.60;;;0.40;;
39848;SDS011;25518;47.878;15.914;2024-01-06T12:19:23;0.22;;;0.20;;
39848;SDS011;25518;47.878;15.914;2024-01-06T12:22:15;0.50;;;0.30;;
39848;SDS011;25518;47.878;15.914;2024-01-06T12:25:07;0.20;;;0.10;;
39848;SDS011;25518;47.878;15.914;2024-01-06T12:28:00;0.20;;;0.20;;
39848;SDS011;25518;47.878;15.914;2024-01-06T12:30:53;0.15;;;0.15;;
39848;SDS011;25518;47.878;15.914;2024-01-06T12:33:45;0.30;;;0.20;;
39848;SDS011;25518;47.878;15.914;2024-01-06T12:36:37;0.50;;;0.30;;
39848;SDS011;25518;47.878;15.914;2024-01-06T12:39:30;0.20;;;0.20;;
39848;SDS011;25518;47.878;15.914;2024-01-06T12:42:22;0.30;;;0.10;;
39848;SDS011;25518;47.878;15.914;2024-01-06T12:45:14;1.10;;;0.60;;
39848;SDS011;25518;47.878;15.914;2024-01-06T12:48:07;0.20;;;0.20;;
39848;SDS011;25518;47.878;15.914;2024-01-06T12:50:58;0.15;;;0.15;;
39848;SDS011;25518;47.878;15.914;2024-01-06T12:53:50;0.50;;;0.30;;
39848;SDS011;25518;47.878;15.914;2024-01-06T12:56:41;0.00;;;0.00;;
39848;SDS011;25518;47.878;15.914;2024-01-06T12:59:33;0.50;;;0.20;;
39848;SDS011;25518;47.878;15.914;2024-01-06T13:02:24;0.55;;;0.30;;
39848;SDS011;25518;47.878;15.914;2024-01-06T13:05:16;0.30;;;0.30;;
39848;SDS011;25518;47.878;15.914;2024-01-06T13:08:07;0.30;;;0.30;;
39848;SDS011;25518;47.878;15.914;2024-01-06T13:10:59;0.67;;;0.50;;
39848;SDS011;25518;47.878;15.914;2024-01-06T13:13:50;1.33;;;0.60;;
39848;SDS011;25518;47.878;15.914;2024-01-06T13:16:42;0.70;;;0.30;;
39848;SDS011;25518;47.878;15.914;2024-01-06T13:19:33;0.20;;;0.20;;
39848;SDS011;25518;47.878;15.914;2024-01-06T13:22:24;0.13;;;0.13;;
39848;SDS011;25518;47.878;15.914;2024-01-06T13:25:17;0.20;;;0.10;;
39848;SDS011;25518;47.878;15.914;2024-01-06T13:28:10;0.10;;;0.10;;
39848;SDS011;25518;47.878;15.914;2024-01-06T13:31:02;0.10;;;0.10;;
39848;SDS011;25518;47.878;15.914;2024-01-06T13:33:54;0.40;;;0.20;;
39848;SDS011;25518;47.878;15.914;2024-01-06T13:36:46;0.28;;;0.20;;
39848;SDS011;25518;47.878;15.914;2024-01-06T13:39:37;0.20;;;0.10;;
39848;SDS011;25518;47.878;15.914;2024-01-06T13:42:29;0.40;;;0.20;;
39848;SDS011;25518;47.878;15.914;2024-01-06T13:45:20;1.08;;;0.28;;
39848;SDS011;25518;47.878;15.914;2024-01-06T13:48:12;0.85;;;0.50;;
39848;SDS011;25518;47.878;15.914;2024-01-06T13:51:04;0.52;;;0.30;;
39848;SDS011;25518;47.878;15.914;2024-01-06T13:53:55;0.35;;;0.30;;
39848;SDS011;25518;47.878;15.914;2024-01-06T13:56:46;0.17;;;0.10;;
39848;SDS011;25518;47.878;15.914;2024-01-06T13:59:38;0.50;;;0.20;;
39848;SDS011;25518;47.878;15.914;2024-01-06T14:02:33;0.10;;;0.10;;
39848;SDS011;25518;47.878;15.914;2024-01-06T14:05:25;0.60;;;0.40;;
39848;SDS011;25518;47.878;15.914;2024-01-06T14:08:16;0.20;;;0.20;;
39848;SDS011;25518;47.878;15.914;2024-01-06T14:11:07;0.30;;;0.20;;
39848;SDS011;25518;47.878;15.914;2024-01-06T14:13:59;0.20;;;0.20;;
39848;SDS011;25518;47.878;15.914;2024-01-06T14:16:50;0.33;;;0.20;;
39848;SDS011;25518;47.878;15.914;2024-01-06T14:19:42;0.10;;;0.10;;
39848;SDS011;25518;47.878;15.914;2024-01-06T14:22:33;0.10;;;0.10;;
39848;SDS011;25518;47.878;15.914;2024-01-06T14:25:25;0.30;;;0.10;;
39848;SDS011;25518;47.878;15.914;2024-01-06T14:28:16;0.20;;;0.10;;
39848;SDS011;25518;47.878;15.914;2024-01-06T14:31:07;0.30;;;0.30;;
39848;SDS011;25518;47.878;15.914;2024-01-06T14:34:00;0.10;;;0.10;;
39848;SDS011;25518;47.878;15.914;2024-01-06T14:36:52;0.70;;;0.10;;
39848;SDS011;25518;47.878;15.914;2024-01-06T14:39:43;0.10;;;0.10;;
39848;SDS011;25518;47.878;15.914;2024-01-06T14:42:34;0.10;;;0.10;;
39848;SDS011;25518;47.878;15.914;2024-01-06T14:45:26;0.15;;;0.10;;
39848;SDS011;25518;47.878;15.914;2024-01-06T14:48:18;0.20;;;0.20;;
39848;SDS011;25518;47.878;15.914;2024-01-06T14:51:09;0.20;;;0.20;;
39848;SDS011;25518;47.878;15.914;2024-01-06T14:54:00;0.20;;;0.20;;
39848;SDS011;25518;47.878;15.914;2024-01-06T14:56:52;0.32;;;0.25;;
39848;SDS011;25518;47.878;15.914;2024-01-06T14:59:44;0.52;;;0.40;;
39848;SDS011;25518;47.878;15.914;2024-01-06T15:02:37;0.32;;;0.20;;
39848;SDS011;25518;47.878;15.914;2024-01-06T15:05:29;0.10;;;0.10;;
39848;SDS011;25518;47.878;15.914;2024-01-06T15:08:20;0.10;;;0.10;;
39848;SDS011;25518;47.878;15.914;2024-01-06T15:11:12;0.50;;;0.20;;
39848;SDS011;25518;47.878;15.914;2024-01-06T15:14:03;0.10;;;0.10;;
39848;SDS011;25518;47.878;15.914;2024-01-06T15:16:56;0.10;;;0.10;;
39848;SDS011;25518;47.878;15.914;2024-01-06T15:19:48;0.43;;;0.20;;
39848;SDS011;25518;47.878;15.914;2024-01-06T15:22:40;0.15;;;0.15;;
39848;SDS011;25518;47.878;15.914;2024-01-06T15:25:31;0.20;;;0.20;;
39848;SDS011;25518;47.878;15.914;2024-01-06T15:28:23;0.30;;;0.20;;
39848;SDS011;25518;47.878;15.914;2024-01-06T15:31:14;0.25;;;0.15;;
39848;SDS011;25518;47.878;15.914;2024-01-06T15:34:05;0.35;;;0.20;;
39848;SDS011;25518;47.878;15.914;2024-01-06T15:36:57;0.20;;;0.10;;
39848;SDS011;25518;47.878;15.914;2024-01-06T15:39:48;0.10;;;0.10;;
39848;SDS011;25518;47.878;15.914;2024-01-06T15:42:40;0.10;;;0.10;;
39848;SDS011;25518;47.878;15.914;2024-01-06T15:45:31;0.20;;;0.10;;
39848;SDS011;25518;47.878;15.914;2024-01-06T15:48:22;0.30;;;0.10;;
39848;SDS011;25518;47.878;15.914;2024-01-06T15:51:14;1.75;;;1.13;;
39848;SDS011;25518;47.878;15.914;2024-01-06T15:54:05;0.10;;;0.10;;
39848;SDS011;25518;47.878;15.914;2024-01-06T15:56:57;0.22;;;0.15;;
39848;SDS011;25518;47.878;15.914;2024-01-06T15:59:48;0.20;;;0.20;;
39848;SDS011;25518;47.878;15.914;2024-01-06T16:02:39;0.10;;;0.10;;
39848;SDS011;25518;47.878;15.914;2024-01-06T16:05:31;0.10;;;0.10;;
39848;SDS011;25518;47.878;15.914;2024-01-06T16:08:22;0.10;;;0.05;;
39848;SDS011;25518;47.878;15.914;2024-01-06T16:11:14;0.10;;;0.10;;
39848;SDS011;25518;47.878;15.914;2024-01-06T16:14:06;0.10;;;0.10;;
39848;SDS011;25518;47.878;15.914;2024-01-06T16:16:58;0.03;;;0.03;;
39848;SDS011;25518;47.878;15.914;2024-01-06T16:19:50;0.10;;;0.10;;
39848;SDS011;25518;47.878;15.914;2024-01-06T16:22:42;0.15;;;0.10;;
39848;SDS011;25518;47.878;15.914;2024-01-06T16:25:36;0.10;;;0.10;;
39848;SDS011;25518;47.878;15.914;2024-01-06T16:28:29;0.47;;;0.10;;
39848;SDS011;25518;47.878;15.914;2024-01-06T16:31:20;0.30;;;0.20;;
39848;SDS011;25518;47.878;15.914;2024-01-06T16:34:11;0.20;;;0.10;;
39848;SDS011;25518;47.878;15.914;2024-01-06T16:37:03;0.40;;;0.32;;
39848;SDS011;25518;47.878;15.914;2024-01-06T16:39:54;0.10;;;0.10;;
39848;SDS011;25518;47.878;15.914;2024-01-06T16:42:46;4.40;;;2.17;;
39848;SDS011;25518;47.878;15.914;2024-01-06T16:45:37;0.77;;;0.40;;
39848;SDS011;25518;47.878;15.914;2024-01-06T16:48:29;0.35;;;0.30;;
39848;SDS011;25518;47.878;15.914;2024-01-06T16:51:20;1.17;;;0.70;;
39848;SDS011;25518;47.878;15.914;2024-01-06T16:54:12;0.82;;;0.25;;
39848;SDS011;25518;47.878;15.914;2024-01-06T16:57:03;1.13;;;0.70;;
39848;SDS011;25518;47.878;15.914;2024-01-06T16:59:55;0.70;;;0.40;;